Overview Statistics Trail Chart Weather Telemetry Raw packets
 

This is the latest recevied weather packets stored in our database for station/object LY3FF-10. If no packets are shown the sender has not sent any weather packets the latest 10 day(s).

<< 4 5 6 7 8 9 10 >>
Time Temp. Humidity Pressure Rain* Wind** Luminosity Snow
1788508495 16.11° C 84% 986.4 hPa - - - -
1788507690 16.67° C 83% 986.3 hPa - - - -
1788506870 16.67° C 82% 986.3 hPa - - - -
1788506110 17.22° C 82% 986.1 hPa - - - -
1788505248 16.67° C 83% 986.3 hPa - - - -
1788504366 16.11° C 83% 986.5 hPa - - - -
1788503490 16.11° C 83% 986.6 hPa - - - -
1788502645 16.11° C 83% 986.6 hPa - - - -
1788501880 16.11° C 83% 986.7 hPa - - - -
1788501145 16.11° C 84% 986.8 hPa - - - -
1788500365 15.56° C 84% 986.9 hPa - - - -
1788499612 15° C 84% 987.1 hPa - - - -
1788498765 14.44° C 84% 987.3 hPa - - - -
1788497920 14.44° C 84% 987.4 hPa - - - -
1788497085 14.44° C 84% 987.7 hPa - - - -
1788496240 14.44° C 83% 987.9 hPa - - - -
1788495345 15° C 82% 987.9 hPa - - - -
1788494485 15° C 80% 987.9 hPa - - - -
1788493685 15° C 81% 988.1 hPa - - - -
1788492875 14.44° C 81% 988.1 hPa - - - -
1788492114 14.44° C 81% 988.4 hPa - - - -
1788491370 14.44° C 81% 988.4 hPa - - - -
1788490635 14.44° C 81% 988.6 hPa - - - -
1788489825 14.44° C 81% 988.8 hPa - - - -
1788489105 14.44° C 81% 988.8 hPa - - - -

* Rain since midnight (hover to see other rain measurements)
** Current wind speed in m/s (hover to see current wind gust speed)